createdAt,value
2018-01-23T00:01:12.508Z,1.13
2018-01-23T00:03:40.340Z,1.13
2018-01-23T00:06:08.292Z,1.12
2018-01-23T00:08:36.070Z,1.12
2018-01-23T00:11:03.812Z,1.12
2018-01-23T00:13:31.607Z,1.14
2018-01-23T00:15:59.516Z,1.13
2018-01-23T00:18:27.348Z,1.12
2018-01-23T00:20:57.787Z,1.11
2018-01-23T00:23:25.663Z,1.10
2018-01-23T00:25:53.535Z,1.10
2018-01-23T00:28:21.340Z,1.12
2018-01-23T00:30:49.166Z,1.13
2018-01-23T00:33:16.960Z,1.13
2018-01-23T00:35:44.700Z,1.12
2018-01-23T00:38:12.495Z,1.13
2018-01-23T00:40:40.500Z,1.12
2018-01-23T00:43:08.320Z,1.11
2018-01-23T00:45:36.144Z,1.12
2018-01-23T00:48:04.028Z,1.10
2018-01-23T00:50:32.206Z,1.10
2018-01-23T00:52:59.999Z,1.10
2018-01-23T00:55:28.471Z,1.09
2018-01-23T00:57:56.458Z,1.11
2018-01-23T01:00:24.196Z,1.10
2018-01-23T01:02:52.038Z,1.11
2018-01-23T01:05:19.851Z,1.12
2018-01-23T01:07:47.673Z,1.12
2018-01-23T01:10:15.496Z,1.11
2018-01-23T01:12:43.250Z,1.11
2018-01-23T01:15:11.040Z,1.11
2018-01-23T01:17:38.786Z,1.11
2018-01-23T01:20:06.596Z,1.12
2018-01-23T01:22:34.429Z,1.13
2018-01-23T01:25:02.132Z,1.13
2018-01-23T01:27:29.965Z,1.13
2018-01-23T01:29:57.769Z,1.12
2018-01-23T01:32:25.567Z,1.12
2018-01-23T01:34:53.384Z,1.13
2018-01-23T01:37:21.227Z,1.12
2018-01-23T01:39:49.077Z,1.11
2018-01-23T01:42:16.923Z,1.12
2018-01-23T01:44:44.739Z,1.13
2018-01-23T01:47:12.605Z,1.11
2018-01-23T01:49:41.599Z,1.10
2018-01-23T01:52:10.264Z,1.10
2018-01-23T01:54:38.110Z,1.10
2018-01-23T01:57:06.127Z,1.08
2018-01-23T01:59:35.232Z,1.08
2018-01-23T02:02:03.223Z,1.10
2018-01-23T02:04:31.073Z,1.09
2018-01-23T02:06:58.972Z,1.09
2018-01-23T02:09:29.149Z,1.09
2018-01-23T02:11:57.092Z,1.08
2018-01-23T02:14:24.907Z,1.11
2018-01-23T02:16:52.739Z,1.12
2018-01-23T02:19:21.324Z,1.09
2018-01-23T02:21:49.173Z,1.10
2018-01-23T02:24:17.266Z,1.09
2018-01-23T02:26:46.158Z,1.10
2018-01-23T02:29:14.089Z,1.08
2018-01-23T02:31:41.967Z,1.09
2018-01-23T02:34:10.067Z,1.09
2018-01-23T02:36:37.910Z,1.10
2018-01-23T02:39:05.743Z,1.11
2018-01-23T02:41:33.561Z,1.11
2018-01-23T02:44:01.405Z,1.11
2018-01-23T02:46:30.516Z,1.10
2018-01-23T02:48:58.431Z,1.10
2018-01-23T02:51:26.264Z,1.11
2018-01-23T02:53:54.137Z,1.13
2018-01-23T02:56:21.921Z,1.11
2018-01-23T02:58:49.850Z,1.12
2018-01-23T03:01:17.686Z,1.11
2018-01-23T03:03:45.916Z,1.10
2018-01-23T03:06:13.687Z,1.10
2018-01-23T03:08:45.535Z,1.11
2018-01-23T03:11:13.411Z,1.11
2018-01-23T03:13:41.198Z,1.11
2018-01-23T03:16:09.122Z,1.10
2018-01-23T03:18:36.996Z,1.11
2018-01-23T03:21:04.774Z,1.11
2018-01-23T03:23:32.613Z,1.12
2018-01-23T03:26:00.454Z,1.11
2018-01-23T03:28:28.333Z,1.10
2018-01-23T03:30:56.131Z,1.11
2018-01-23T03:33:24.039Z,1.12
2018-01-23T03:35:51.871Z,1.13
2018-01-23T03:38:19.680Z,1.14
2018-01-23T03:40:47.514Z,1.12
2018-01-23T03:43:15.297Z,1.11
2018-01-23T03:45:43.558Z,1.11
2018-01-23T03:48:11.511Z,1.11
2018-01-23T03:50:39.652Z,1.11
2018-01-23T03:53:07.784Z,1.10
2018-01-23T03:55:35.579Z,1.10
2018-01-23T03:58:03.496Z,1.10
2018-01-23T04:00:31.359Z,1.10
2018-01-23T04:02:59.169Z,1.10
2018-01-23T04:05:26.981Z,1.12
2018-01-23T04:07:54.795Z,1.12
2018-01-23T04:10:22.628Z,1.08
2018-01-23T04:12:50.476Z,1.09
2018-01-23T04:15:18.215Z,1.08
2018-01-23T04:17:46.107Z,1.05
2018-01-23T04:20:13.928Z,1.05
2018-01-23T04:22:41.706Z,1.03
2018-01-23T04:25:09.506Z,1.03
2018-01-23T04:27:37.320Z,1.02
2018-01-23T04:30:05.077Z,1.00
2018-01-23T04:32:32.792Z,0.99
2018-01-23T04:35:00.608Z,0.97
2018-01-23T04:37:28.433Z,0.97
2018-01-23T04:39:56.373Z,0.96
2018-01-23T04:42:24.182Z,0.97
2018-01-23T04:44:52.075Z,0.96
2018-01-23T04:47:19.767Z,0.98
2018-01-23T04:49:47.656Z,0.99
2018-01-23T04:52:15.447Z,1.00
2018-01-23T04:54:43.364Z,1.01
2018-01-23T04:57:11.231Z,1.03
2018-01-23T04:59:39.065Z,1.03
2018-01-23T05:02:06.736Z,1.02
2018-01-23T05:04:34.946Z,1.02
2018-01-23T05:07:02.752Z,1.02
2018-01-23T05:09:30.634Z,1.04
2018-01-23T05:11:58.494Z,1.02
2018-01-23T05:14:27.133Z,1.03
2018-01-23T05:16:55.032Z,1.03
2018-01-23T05:19:22.845Z,1.03
2018-01-23T05:21:50.668Z,1.03
2018-01-23T05:24:18.395Z,1.02
2018-01-23T05:26:46.332Z,1.02
2018-01-23T05:29:14.292Z,1.02
2018-01-23T05:31:42.019Z,1.03
2018-01-23T05:34:09.900Z,1.04
2018-01-23T05:36:37.781Z,1.03
2018-01-23T05:39:05.612Z,1.05
2018-01-23T05:41:33.510Z,1.04
2018-01-23T05:44:01.346Z,1.04
2018-01-23T05:46:29.850Z,1.05
2018-01-23T05:48:57.697Z,1.05
2018-01-23T05:51:25.712Z,1.03
2018-01-23T05:53:53.499Z,1.02
2018-01-23T05:56:21.176Z,1.03
2018-01-23T05:58:50.188Z,1.04
2018-01-23T06:01:18.687Z,1.05
2018-01-23T06:03:46.455Z,1.05
2018-01-23T06:06:14.184Z,1.04
2018-01-23T06:08:41.876Z,1.05
2018-01-23T06:11:09.609Z,1.05
2018-01-23T06:13:41.106Z,1.07
2018-01-23T06:16:08.971Z,1.06
2018-01-23T06:18:39.010Z,1.08
2018-01-23T06:21:11.377Z,1.08
2018-01-23T06:23:45.763Z,1.08
2018-01-23T06:26:20.218Z,1.08
2018-01-23T06:28:49.108Z,1.10
2018-01-23T06:31:21.667Z,1.09
2018-01-23T06:33:53.955Z,1.09
2018-01-23T06:36:42.443Z,1.09
2018-01-23T06:42:33.655Z,1.09
2018-01-23T06:45:01.602Z,1.11
2018-01-23T06:47:34.547Z,1.11
2018-01-23T06:52:44.048Z,1.14
2018-01-23T06:55:17.487Z,1.14
2018-01-23T06:57:51.174Z,1.14
2018-01-23T07:00:18.927Z,1.15
2018-01-23T07:05:27.705Z,1.14
2018-01-23T07:07:58.125Z,1.15
2018-01-23T07:10:35.346Z,1.16
2018-01-23T07:13:11.124Z,1.17
2018-01-23T07:15:38.968Z,1.19
2018-01-23T07:18:11.399Z,1.20
2018-01-23T07:20:41.918Z,1.20
2018-01-23T07:23:09.755Z,1.20
2018-01-23T07:25:37.648Z,1.21
2018-01-23T07:28:05.476Z,1.23
2018-01-23T07:30:33.344Z,1.24
2018-01-23T07:33:01.143Z,1.26
2018-01-23T07:35:31.086Z,1.26
2018-01-23T07:37:58.959Z,1.28
2018-01-23T07:40:26.903Z,1.29
2018-01-23T07:42:54.754Z,1.30
2018-01-23T07:45:24.233Z,1.32
2018-01-23T07:47:54.795Z,1.32
2018-01-23T07:50:22.558Z,1.34
2018-01-23T07:52:50.802Z,1.34
2018-01-23T07:55:18.911Z,1.35
2018-01-23T07:57:46.660Z,1.36
2018-01-23T08:00:16.927Z,1.39
2018-01-23T08:02:44.667Z,1.41
2018-01-23T08:05:13.550Z,1.44
2018-01-23T08:07:42.992Z,1.44
2018-01-23T08:10:10.738Z,1.48
2018-01-23T08:12:39.442Z,1.52
2018-01-23T08:15:07.156Z,1.57
2018-01-23T08:17:34.899Z,1.62
2018-01-23T08:20:02.734Z,1.63
2018-01-23T08:22:30.587Z,1.63
2018-01-23T08:24:58.253Z,1.66
2018-01-23T08:27:26.742Z,1.67
2018-01-23T08:29:54.482Z,1.72
2018-01-23T08:32:22.366Z,1.75
2018-01-23T08:34:50.197Z,1.76
2018-01-23T08:37:18.137Z,1.78
2018-01-23T08:39:45.960Z,1.81
2018-01-23T08:42:13.807Z,1.85
2018-01-23T08:44:41.604Z,1.88
2018-01-23T08:47:09.439Z,1.91
2018-01-23T08:49:37.229Z,1.97
2018-01-23T08:52:05.081Z,2.06
2018-01-23T08:54:32.859Z,2.07
2018-01-23T08:57:00.714Z,2.10
2018-01-23T08:59:28.516Z,2.09
2018-01-23T09:01:56.322Z,2.05
2018-01-23T09:04:24.005Z,2.05
2018-01-23T09:06:52.191Z,2.12
2018-01-23T09:09:21.574Z,2.19
2018-01-23T09:11:50.085Z,2.28
2018-01-23T09:14:17.944Z,2.38
2018-01-23T09:16:45.926Z,2.51
2018-01-23T09:19:13.756Z,2.59
2018-01-23T09:21:41.804Z,2.65
2018-01-23T09:24:10.572Z,2.67
2018-01-23T09:26:38.430Z,2.69
2018-01-23T09:29:08.368Z,2.74
2018-01-23T09:31:36.307Z,2.78
2018-01-23T09:34:04.131Z,2.86
2018-01-23T09:36:32.042Z,2.89
2018-01-23T09:38:59.971Z,2.96
2018-01-23T09:41:27.860Z,2.99
2018-01-23T09:43:55.707Z,3.03
2018-01-23T09:46:23.555Z,3.12
2018-01-23T09:48:51.450Z,3.37
2018-01-23T09:51:19.280Z,3.27
2018-01-23T09:53:48.954Z,3.20
2018-01-23T09:56:16.836Z,3.17
2018-01-23T09:58:45.648Z,3.23
2018-01-23T10:01:13.459Z,3.29
2018-01-23T10:03:42.006Z,3.34
2018-01-23T10:06:09.829Z,3.39
2018-01-23T10:08:38.306Z,3.38
2018-01-23T10:11:06.160Z,3.41
2018-01-23T10:13:37.373Z,3.45
2018-01-23T10:16:05.270Z,3.50
2018-01-23T10:18:33.142Z,3.53
2018-01-23T10:21:00.963Z,3.53
2018-01-23T10:23:31.889Z,3.52
2018-01-23T10:25:59.737Z,3.56
2018-01-23T10:28:27.589Z,3.64
2018-01-23T10:30:59.525Z,3.71
2018-01-23T10:33:28.704Z,3.73
2018-01-23T10:35:56.488Z,3.82
2018-01-23T10:38:27.543Z,3.96
2018-01-23T10:40:55.315Z,4.09
2018-01-23T10:43:24.533Z,4.18
2018-01-23T10:45:52.301Z,4.18
2018-01-23T10:48:20.204Z,4.26
2018-01-23T10:50:48.084Z,4.32
2018-01-23T10:57:22.976Z,4.53
2018-01-23T10:59:50.860Z,4.64
2018-01-23T11:02:18.679Z,4.64
2018-01-23T11:04:46.625Z,4.64
2018-01-23T11:07:14.440Z,4.68
2018-01-23T11:09:44.083Z,4.69
2018-01-23T11:12:12.033Z,4.71
2018-01-23T11:14:39.810Z,4.67
2018-01-23T11:17:08.018Z,4.60
2018-01-23T11:19:53.704Z,4.60
2018-01-23T11:22:23.842Z,4.64
2018-01-23T11:24:52.383Z,4.70
2018-01-23T11:27:20.880Z,4.74
2018-01-23T11:29:58.525Z,4.81
2018-01-23T11:32:27.502Z,4.90
2018-01-23T11:34:59.332Z,5.01
2018-01-23T11:37:27.829Z,5.06
2018-01-23T11:42:46.027Z,5.18
2018-01-23T11:45:22.311Z,5.29
2018-01-23T11:50:43.880Z,5.59
2018-01-23T11:53:12.066Z,5.76
2018-01-23T11:55:40.880Z,5.87
2018-01-23T11:58:20.369Z,5.94
2018-01-23T12:01:02.474Z,5.96
2018-01-23T12:10:40.062Z,5.90
2018-01-23T12:16:10.328Z,5.77
2018-01-23T12:18:38.102Z,5.72
2018-01-23T12:21:05.756Z,5.72
2018-01-23T12:23:33.463Z,5.71
2018-01-23T12:26:01.141Z,5.74
2018-01-23T12:28:28.857Z,5.79
2018-01-23T12:30:56.521Z,5.84
2018-01-23T12:33:24.216Z,5.90
2018-01-23T12:35:51.886Z,5.94
2018-01-23T12:38:19.583Z,5.95
2018-01-23T12:40:47.244Z,5.94
2018-01-23T12:43:14.934Z,5.95
2018-01-23T12:45:42.599Z,5.98
2018-01-23T12:48:10.300Z,6.03
2018-01-23T12:50:37.979Z,6.06
2018-01-23T12:53:05.708Z,6.09
2018-01-23T12:55:33.394Z,6.10
2018-01-23T12:58:01.090Z,6.15
2018-01-23T13:00:28.832Z,6.22
2018-01-23T13:02:56.650Z,6.30
2018-01-23T13:05:24.326Z,6.35
2018-01-23T13:07:52.079Z,6.32
2018-01-23T13:10:19.905Z,6.33
2018-01-23T13:12:47.739Z,6.34
2018-01-23T13:15:15.433Z,6.33
2018-01-23T13:17:43.142Z,6.33
2018-01-23T13:20:10.865Z,6.35
2018-01-23T13:22:38.543Z,6.34
2018-01-23T13:25:06.251Z,6.31
2018-01-23T13:27:33.926Z,6.28
2018-01-23T13:30:01.768Z,6.30
2018-01-23T13:32:29.510Z,6.35
2018-01-23T13:34:57.308Z,6.41
2018-01-23T13:37:25.070Z,6.45
2018-01-23T13:39:52.853Z,6.51
2018-01-23T13:42:20.592Z,6.54
2018-01-23T13:44:49.294Z,6.58
2018-01-23T13:47:16.972Z,6.63
2018-01-23T13:49:44.747Z,6.68
2018-01-23T13:52:12.501Z,6.74
2018-01-23T13:54:40.303Z,6.74
2018-01-23T13:57:08.053Z,6.74
2018-01-23T13:59:35.845Z,6.76
2018-01-23T14:02:03.487Z,6.75
2018-01-23T14:04:31.217Z,6.76
2018-01-23T14:06:58.937Z,6.77
2018-01-23T14:09:26.659Z,6.77
2018-01-23T14:11:54.344Z,6.78
2018-01-23T14:14:22.094Z,6.77
2018-01-23T14:16:49.756Z,6.76
2018-01-23T14:19:17.493Z,6.72
2018-01-23T14:21:45.152Z,6.70
2018-01-23T14:24:13.145Z,6.67
2018-01-23T14:26:40.832Z,6.62
2018-01-23T14:29:08.556Z,6.58
2018-01-23T14:31:36.316Z,6.55
2018-01-23T14:34:04.031Z,6.51
2018-01-23T14:36:31.692Z,6.48
2018-01-23T14:38:59.398Z,6.46
2018-01-23T14:41:27.050Z,6.45
2018-01-23T14:43:54.796Z,6.40
2018-01-23T14:46:22.468Z,6.37
2018-01-23T14:48:50.126Z,6.32
2018-01-23T14:51:17.837Z,6.27
2018-01-23T14:53:45.592Z,6.21
2018-01-23T14:56:13.316Z,6.17
2018-01-23T14:58:41.027Z,6.13
2018-01-23T15:01:08.818Z,6.10
2018-01-23T15:03:36.524Z,6.08
2018-01-23T15:06:04.234Z,6.08
2018-01-23T15:08:31.898Z,6.08
2018-01-23T15:10:59.632Z,6.09
2018-01-23T15:13:27.412Z,6.05
2018-01-23T15:15:55.215Z,6.02
2018-01-23T15:18:22.883Z,6.01
2018-01-23T15:20:50.598Z,5.96
2018-01-23T15:23:18.380Z,5.92
2018-01-23T15:25:46.160Z,5.90
2018-01-23T15:28:13.900Z,5.86
2018-01-23T15:30:41.699Z,5.81
2018-01-23T15:33:09.355Z,5.79
2018-01-23T15:35:37.153Z,5.78
2018-01-23T15:38:04.892Z,5.73
2018-01-23T15:40:32.716Z,5.67
2018-01-23T15:43:00.469Z,5.64
2018-01-23T15:45:28.187Z,5.62
2018-01-23T15:47:55.936Z,5.60
2018-01-23T15:50:23.769Z,5.60
2018-01-23T15:52:51.457Z,5.59
2018-01-23T15:55:19.259Z,5.58
2018-01-23T15:57:47.002Z,5.60
2018-01-23T16:00:14.690Z,5.61
2018-01-23T16:02:42.468Z,5.62
2018-01-23T16:05:10.195Z,5.60
2018-01-23T16:07:37.841Z,5.61
2018-01-23T16:10:05.683Z,5.67
2018-01-23T16:12:33.486Z,5.67
2018-01-23T16:15:01.273Z,5.68
2018-01-23T16:17:29.052Z,5.70
2018-01-23T16:19:56.843Z,5.71
2018-01-23T16:22:24.596Z,5.72
2018-01-23T16:24:52.333Z,5.77
2018-01-23T16:27:20.099Z,5.78
2018-01-23T16:29:47.835Z,5.79
2018-01-23T16:32:15.555Z,5.79
2018-01-23T16:34:43.248Z,5.75
2018-01-23T16:37:10.953Z,5.79
2018-01-23T16:39:38.694Z,5.79
2018-01-23T16:42:06.555Z,5.81
2018-01-23T16:44:34.222Z,5.80
2018-01-23T16:47:02.036Z,5.85
2018-01-23T16:49:29.795Z,5.92
2018-01-23T16:51:57.501Z,5.97
2018-01-23T16:54:25.202Z,6.00
2018-01-23T16:56:52.914Z,6.00
2018-01-23T16:59:20.573Z,5.96
2018-01-23T17:01:48.297Z,5.92
2018-01-23T17:04:15.943Z,5.88
2018-01-23T17:06:43.658Z,5.88
2018-01-23T17:09:11.327Z,5.85
2018-01-23T17:11:39.047Z,5.84
2018-01-23T17:14:06.693Z,5.85
2018-01-23T17:16:34.390Z,5.86
2018-01-23T17:19:02.062Z,5.87
2018-01-23T17:21:29.804Z,5.86
2018-01-23T17:23:57.488Z,5.83
2018-01-23T17:26:25.203Z,5.79
2018-01-23T17:28:52.879Z,5.79
2018-01-23T17:31:20.587Z,5.81
2018-01-23T17:33:48.253Z,5.87
2018-01-23T17:36:15.954Z,5.87
2018-01-23T17:38:43.617Z,5.88
2018-01-23T17:41:11.335Z,5.89
2018-01-23T17:43:38.991Z,5.92
2018-01-23T17:46:06.736Z,5.93
2018-01-23T17:48:34.397Z,5.93
2018-01-23T17:51:02.113Z,5.91
2018-01-23T17:53:29.773Z,5.85
2018-01-23T17:55:57.478Z,5.81
2018-01-23T17:58:25.195Z,5.81
2018-01-23T18:00:52.898Z,5.83
2018-01-23T18:03:20.638Z,5.82
2018-01-23T18:05:48.475Z,5.89
2018-01-23T18:08:16.142Z,5.91
2018-01-23T18:10:43.979Z,5.90
2018-01-23T18:13:11.815Z,5.89
2018-01-23T18:15:39.461Z,5.91
2018-01-23T18:18:07.269Z,5.91
2018-01-23T18:20:34.936Z,5.89
2018-01-23T18:23:02.679Z,5.89
2018-01-23T18:25:30.420Z,5.93
2018-01-23T18:27:58.177Z,5.96
2018-01-23T18:30:25.910Z,5.98
2018-01-23T18:32:53.754Z,5.96
2018-01-23T18:35:21.536Z,5.96
2018-01-23T18:37:49.339Z,5.95
2018-01-23T18:40:17.153Z,5.96
2018-01-23T18:42:44.940Z,5.97
2018-01-23T18:45:12.674Z,5.96
2018-01-23T18:47:40.484Z,5.98
2018-01-23T18:50:08.154Z,5.99
2018-01-23T18:52:35.948Z,5.98
2018-01-23T18:55:03.707Z,6.03
2018-01-23T18:57:31.580Z,6.04
2018-01-23T18:59:59.241Z,6.05
2018-01-23T19:02:27.104Z,6.10
2018-01-23T19:04:54.855Z,6.15
2018-01-23T19:07:22.630Z,6.17
2018-01-23T19:09:50.355Z,6.16
2018-01-23T19:12:18.230Z,6.17
2018-01-23T19:14:46.023Z,6.15
2018-01-23T19:17:13.747Z,6.13
2018-01-23T19:19:41.414Z,6.11
2018-01-23T19:22:09.159Z,6.08
2018-01-23T19:24:36.880Z,6.05
2018-01-23T19:27:04.735Z,6.02
2018-01-23T19:29:32.471Z,5.97
2018-01-23T19:32:00.212Z,5.94
2018-01-23T19:34:27.913Z,5.93
2018-01-23T19:36:55.675Z,5.95
2018-01-23T19:39:23.496Z,5.97
2018-01-23T19:41:51.341Z,5.96
2018-01-23T19:44:19.065Z,5.95
2018-01-23T19:46:46.834Z,5.93
2018-01-23T19:49:15.443Z,5.94
2018-01-23T19:51:43.172Z,5.95
2018-01-23T19:54:11.672Z,5.92
2018-01-23T19:56:39.359Z,5.89
2018-01-23T19:59:07.139Z,5.87
2018-01-23T20:01:38.026Z,5.84
2018-01-23T20:04:05.729Z,5.82
2018-01-23T20:06:33.466Z,5.80
2018-01-23T20:09:01.260Z,5.78
2018-01-23T20:11:28.947Z,5.76
2018-01-23T20:13:59.360Z,5.75
2018-01-23T20:16:27.019Z,5.72
2018-01-23T20:18:54.738Z,5.71
2018-01-23T20:21:22.452Z,5.71
2018-01-23T20:23:50.186Z,5.72
2018-01-23T20:26:17.873Z,5.72
2018-01-23T20:28:45.723Z,5.74
2018-01-23T20:31:13.512Z,5.71
2018-01-23T20:33:41.227Z,5.72
2018-01-23T20:36:08.951Z,5.72
2018-01-23T20:38:36.699Z,5.71
2018-01-23T20:41:04.487Z,5.69
2018-01-23T20:43:32.347Z,5.70
2018-01-23T20:46:00.047Z,5.69
2018-01-23T20:48:27.794Z,5.68
2018-01-23T20:50:55.459Z,5.68
2018-01-23T20:53:23.211Z,5.67
2018-01-23T20:55:50.954Z,5.66
2018-01-23T20:58:18.644Z,5.67
2018-01-23T21:00:46.385Z,5.67
2018-01-23T21:03:14.087Z,5.64
2018-01-23T21:05:41.798Z,5.63
2018-01-23T21:08:09.544Z,5.60
2018-01-23T21:10:37.274Z,5.57
2018-01-23T21:13:05.037Z,5.55
2018-01-23T21:15:32.770Z,5.55
2018-01-23T21:18:00.468Z,5.57
2018-01-23T21:20:28.182Z,5.57
2018-01-23T21:22:55.944Z,5.58
2018-01-23T21:25:23.622Z,5.58
2018-01-23T21:27:51.327Z,5.57
2018-01-23T21:30:19.034Z,5.58
2018-01-23T21:32:46.798Z,5.59
2018-01-23T21:35:14.502Z,5.58
2018-01-23T21:37:42.204Z,5.60
2018-01-23T21:40:09.892Z,5.59
2018-01-23T21:42:37.536Z,5.58
2018-01-23T21:45:05.248Z,5.59
2018-01-23T21:47:32.931Z,5.60
2018-01-23T21:50:00.674Z,5.61
2018-01-23T21:52:28.454Z,5.61
2018-01-23T21:54:56.273Z,5.63
2018-01-23T21:57:24.031Z,5.63
2018-01-23T21:59:51.892Z,5.63
2018-01-23T22:02:19.634Z,5.64
2018-01-23T22:04:47.387Z,5.64
2018-01-23T22:07:15.101Z,5.65
2018-01-23T22:09:42.863Z,5.66
2018-01-23T22:12:10.580Z,5.67
2018-01-23T22:14:38.600Z,5.68
2018-01-23T22:17:06.304Z,5.70
2018-01-23T22:19:34.004Z,5.70
2018-01-23T22:22:01.675Z,5.72
2018-01-23T22:24:29.416Z,5.72
2018-01-23T22:26:57.073Z,5.72
2018-01-23T22:29:24.756Z,5.72
2018-01-23T22:31:52.399Z,5.72
2018-01-23T22:34:20.189Z,5.73
2018-01-23T22:36:48.059Z,5.75
2018-01-23T22:39:15.786Z,5.78
2018-01-23T22:41:43.426Z,5.78
2018-01-23T22:44:11.206Z,5.79
2018-01-23T22:46:38.849Z,5.80
2018-01-23T22:49:06.574Z,5.82
2018-01-23T22:51:34.219Z,5.82
2018-01-23T22:54:02.018Z,5.84
2018-01-23T22:56:29.721Z,5.84
2018-01-23T22:58:57.490Z,5.85
2018-01-23T23:01:25.147Z,5.84
2018-01-23T23:03:52.838Z,5.85
2018-01-23T23:06:20.515Z,5.85
2018-01-23T23:08:48.298Z,5.88
2018-01-23T23:11:16.091Z,5.89
2018-01-23T23:13:43.886Z,5.92
2018-01-23T23:16:11.629Z,5.93
2018-01-23T23:18:39.351Z,5.95
2018-01-23T23:21:07.115Z,5.95
2018-01-23T23:23:34.755Z,5.97
2018-01-23T23:26:02.532Z,5.99
2018-01-23T23:28:30.254Z,6.01
2018-01-23T23:30:58.027Z,6.02
2018-01-23T23:33:25.754Z,6.06
2018-01-23T23:35:53.469Z,6.10
2018-01-23T23:38:21.200Z,6.12
2018-01-23T23:40:48.888Z,6.17
2018-01-23T23:43:16.615Z,6.17
2018-01-23T23:45:44.314Z,6.22
2018-01-23T23:48:12.011Z,6.27
2018-01-23T23:50:39.805Z,6.29
2018-01-23T23:53:07.547Z,6.34
2018-01-23T23:55:35.348Z,6.38
2018-01-23T23:58:03.000Z,6.38
